sensor_id;sensor_type;location;lat;lon;timestamp;noise_LAeq;noise_LA_min;noise_LA_max;noise_LA01;noise_LA95
61321;Laerm;17737;52.586;13.284;2023-04-06T00:00:02;52.55;51.41;66.48;;
61321;Laerm;17737;52.586;13.284;2023-04-06T00:02:31;52.66;51.35;57.55;;
61321;Laerm;17737;52.586;13.284;2023-04-06T00:05:00;52.77;51.34;56.62;;
61321;Laerm;17737;52.586;13.284;2023-04-06T00:07:28;52.55;51.20;56.22;;
61321;Laerm;17737;52.586;13.284;2023-04-06T00:09:56;52.53;51.28;54.47;;
61321;Laerm;17737;52.586;13.284;2023-04-06T00:12:24;52.53;51.21;54.56;;
61321;Laerm;17737;52.586;13.284;2023-04-06T00:14:54;52.53;51.40;54.81;;
61321;Laerm;17737;52.586;13.284;2023-04-06T00:17:22;52.57;51.07;66.83;;
61321;Laerm;17737;52.586;13.284;2023-04-06T00:19:50;52.55;51.37;54.91;;
61321;Laerm;17737;52.586;13.284;2023-04-06T00:22:18;52.55;51.43;55.63;;
61321;Laerm;17737;52.586;13.284;2023-04-06T00:24:46;52.63;51.31;55.28;;
61321;Laerm;17737;52.586;13.284;2023-04-06T00:27:14;52.55;50.98;55.41;;
61321;Laerm;17737;52.586;13.284;2023-04-06T00:29:43;52.58;51.38;54.50;;
61321;Laerm;17737;52.586;13.284;2023-04-06T00:32:13;52.88;51.42;66.74;;
61321;Laerm;17737;52.586;13.284;2023-04-06T00:34:42;52.56;51.44;55.38;;
61321;Laerm;17737;52.586;13.284;2023-04-06T00:37:11;53.54;51.41;62.03;;
61321;Laerm;17737;52.586;13.284;2023-04-06T00:39:39;52.79;51.16;66.18;;
61321;Laerm;17737;52.586;13.284;2023-04-06T00:42:11;52.57;51.26;54.53;;
61321;Laerm;17737;52.586;13.284;2023-04-06T00:44:40;52.58;51.25;55.40;;
61321;Laerm;17737;52.586;13.284;2023-04-06T00:47:09;52.60;51.08;67.20;;
61321;Laerm;17737;52.586;13.284;2023-04-06T00:49:39;52.58;51.30;54.47;;
61321;Laerm;17737;52.586;13.284;2023-04-06T00:52:08;53.37;51.37;66.78;;
61321;Laerm;17737;52.586;13.284;2023-04-06T00:54:36;52.59;51.02;68.13;;
61321;Laerm;17737;52.586;13.284;2023-04-06T00:57:04;52.61;51.22;54.65;;
61321;Laerm;17737;52.586;13.284;2023-04-06T00:59:33;52.93;51.38;66.38;;
61321;Laerm;17737;52.586;13.284;2023-04-06T01:02:01;52.56;51.30;55.77;;
61321;Laerm;17737;52.586;13.284;2023-04-06T01:04:30;52.64;51.15;55.03;;
61321;Laerm;17737;52.586;13.284;2023-04-06T01:06:59;52.56;51.31;55.03;;
61321;Laerm;17737;52.586;13.284;2023-04-06T01:09:27;52.60;51.35;67.61;;
61321;Laerm;17737;52.586;13.284;2023-04-06T01:11:56;52.61;51.07;67.36;;
61321;Laerm;17737;52.586;13.284;2023-04-06T01:14:25;52.58;51.41;54.84;;
61321;Laerm;17737;52.586;13.284;2023-04-06T01:16:57;52.57;51.27;55.14;;
61321;Laerm;17737;52.586;13.284;2023-04-06T01:19:28;52.68;51.09;55.42;;
61321;Laerm;17737;52.586;13.284;2023-04-06T01:21:56;52.61;51.37;55.67;;
61321;Laerm;17737;52.586;13.284;2023-04-06T01:24:26;52.84;51.13;68.66;;
61321;Laerm;17737;52.586;13.284;2023-04-06T01:26:54;52.69;51.24;68.30;;
61321;Laerm;17737;52.586;13.284;2023-04-06T01:29:23;52.68;50.91;66.41;;
61321;Laerm;17737;52.586;13.284;2023-04-06T01:31:51;52.76;51.44;55.16;;
61321;Laerm;17737;52.586;13.284;2023-04-06T01:34:19;52.67;51.46;55.66;;
61321;Laerm;17737;52.586;13.284;2023-04-06T01:36:47;52.68;51.37;55.75;;
61321;Laerm;17737;52.586;13.284;2023-04-06T01:39:16;52.69;51.46;54.63;;
61321;Laerm;17737;52.586;13.284;2023-04-06T01:41:45;52.71;51.47;54.55;;
61321;Laerm;17737;52.586;13.284;2023-04-06T01:44:17;52.73;51.35;56.48;;
61321;Laerm;17737;52.586;13.284;2023-04-06T01:46:45;52.81;51.43;57.54;;
61321;Laerm;17737;52.586;13.284;2023-04-06T01:49:13;52.73;51.54;55.35;;
61321;Laerm;17737;52.586;13.284;2023-04-06T01:51:41;52.96;51.38;56.77;;
61321;Laerm;17737;52.586;13.284;2023-04-06T01:54:10;52.99;51.37;56.68;;
61321;Laerm;17737;52.586;13.284;2023-04-06T01:56:38;52.71;51.30;55.15;;
61321;Laerm;17737;52.586;13.284;2023-04-06T01:59:07;52.74;51.58;55.89;;
61321;Laerm;17737;52.586;13.284;2023-04-06T02:01:36;53.41;51.51;61.60;;
61321;Laerm;17737;52.586;13.284;2023-04-06T02:04:04;52.74;51.49;55.20;;
61321;Laerm;17737;52.586;13.284;2023-04-06T02:06:32;53.13;51.42;59.70;;
61321;Laerm;17737;52.586;13.284;2023-04-06T02:09:00;52.77;51.58;54.69;;
61321;Laerm;17737;52.586;13.284;2023-04-06T02:11:28;52.77;51.54;55.77;;
61321;Laerm;17737;52.586;13.284;2023-04-06T02:13:57;52.79;51.51;55.27;;
61321;Laerm;17737;52.586;13.284;2023-04-06T02:16:28;53.01;51.52;60.38;;
61321;Laerm;17737;52.586;13.284;2023-04-06T02:18:56;52.83;51.60;68.79;;
61321;Laerm;17737;52.586;13.284;2023-04-06T02:21:24;52.79;51.56;55.84;;
61321;Laerm;17737;52.586;13.284;2023-04-06T02:23:52;52.88;51.47;55.06;;
61321;Laerm;17737;52.586;13.284;2023-04-06T02:26:20;52.81;51.59;55.02;;
61321;Laerm;17737;52.586;13.284;2023-04-06T02:28:48;52.98;51.50;57.52;;
61321;Laerm;17737;52.586;13.284;2023-04-06T02:31:16;52.96;51.68;56.38;;
61321;Laerm;17737;52.586;13.284;2023-04-06T02:33:46;52.84;51.52;56.21;;
61321;Laerm;17737;52.586;13.284;2023-04-06T02:36:14;53.05;51.40;67.23;;
61321;Laerm;17737;52.586;13.284;2023-04-06T02:38:42;54.29;51.79;64.07;;
61321;Laerm;17737;52.586;13.284;2023-04-06T02:41:11;53.28;51.75;58.83;;
61321;Laerm;17737;52.586;13.284;2023-04-06T02:43:39;52.85;51.56;55.42;;
61321;Laerm;17737;52.586;13.284;2023-04-06T02:46:07;52.87;51.49;55.55;;
61321;Laerm;17737;52.586;13.284;2023-04-06T02:48:35;52.87;51.66;54.92;;
61321;Laerm;17737;52.586;13.284;2023-04-06T02:51:05;53.00;51.68;67.86;;
61321;Laerm;17737;52.586;13.284;2023-04-06T02:53:33;52.87;51.69;54.21;;
61321;Laerm;17737;52.586;13.284;2023-04-06T02:56:01;53.16;51.75;59.19;;
61321;Laerm;17737;52.586;13.284;2023-04-06T02:58:29;53.37;51.54;61.76;;
61321;Laerm;17737;52.586;13.284;2023-04-06T03:00:57;53.06;51.66;56.78;;
61321;Laerm;17737;52.586;13.284;2023-04-06T03:03:25;52.89;51.60;55.29;;
61321;Laerm;17737;52.586;13.284;2023-04-06T03:05:53;53.37;51.71;56.95;;
61321;Laerm;17737;52.586;13.284;2023-04-06T03:08:24;53.37;51.71;65.95;;
61321;Laerm;17737;52.586;13.284;2023-04-06T03:10:52;54.25;51.57;64.24;;
61321;Laerm;17737;52.586;13.284;2023-04-06T03:13:21;53.11;51.61;56.02;;
61321;Laerm;17737;52.586;13.284;2023-04-06T03:15:49;54.06;51.53;68.64;;
61321;Laerm;17737;52.586;13.284;2023-04-06T03:18:21;54.15;51.72;61.05;;
61321;Laerm;17737;52.586;13.284;2023-04-06T03:20:49;53.30;51.47;58.33;;
61321;Laerm;17737;52.586;13.284;2023-04-06T03:23:17;54.67;51.56;65.27;;
61321;Laerm;17737;52.586;13.284;2023-04-06T03:25:49;53.11;51.53;57.15;;
61321;Laerm;17737;52.586;13.284;2023-04-06T03:28:16;53.77;51.99;58.57;;
61321;Laerm;17737;52.586;13.284;2023-04-06T03:30:45;53.94;51.37;60.21;;
61321;Laerm;17737;52.586;13.284;2023-04-06T03:33:13;53.66;51.61;68.59;;
61321;Laerm;17737;52.586;13.284;2023-04-06T03:35:41;54.16;51.73;59.37;;
61321;Laerm;17737;52.586;13.284;2023-04-06T03:38:10;53.52;51.64;56.69;;
61321;Laerm;17737;52.586;13.284;2023-04-06T03:40:38;53.50;51.67;58.04;;
61321;Laerm;17737;52.586;13.284;2023-04-06T03:43:07;53.83;51.68;64.94;;
61321;Laerm;17737;52.586;13.284;2023-04-06T03:45:35;54.12;51.76;67.80;;
61321;Laerm;17737;52.586;13.284;2023-04-06T03:48:04;60.96;51.75;80.80;;
61321;Laerm;17737;52.586;13.284;2023-04-06T03:50:33;54.01;51.70;68.09;;
61321;Laerm;17737;52.586;13.284;2023-04-06T03:53:01;54.64;51.92;62.75;;
61321;Laerm;17737;52.586;13.284;2023-04-06T03:55:29;53.70;51.71;67.51;;
61321;Laerm;17737;52.586;13.284;2023-04-06T03:57:57;53.81;51.86;61.58;;
61321;Laerm;17737;52.586;13.284;2023-04-06T04:00:27;54.30;51.77;61.40;;
61321;Laerm;17737;52.586;13.284;2023-04-06T04:02:55;54.19;51.90;68.23;;
61321;Laerm;17737;52.586;13.284;2023-04-06T04:05:23;53.35;51.48;60.72;;
61321;Laerm;17737;52.586;13.284;2023-04-06T04:07:52;54.00;51.61;68.76;;
61321;Laerm;17737;52.586;13.284;2023-04-06T04:10:20;54.22;51.76;59.50;;
61321;Laerm;17737;52.586;13.284;2023-04-06T04:12:48;54.14;51.58;59.75;;
61321;Laerm;17737;52.586;13.284;2023-04-06T04:15:16;53.64;51.75;59.18;;
61321;Laerm;17737;52.586;13.284;2023-04-06T04:17:46;54.03;51.62;59.17;;
61321;Laerm;17737;52.586;13.284;2023-04-06T04:20:16;53.86;51.54;60.77;;
61321;Laerm;17737;52.586;13.284;2023-04-06T04:22:44;54.04;51.47;63.86;;
61321;Laerm;17737;52.586;13.284;2023-04-06T04:25:13;53.90;51.73;58.84;;
61321;Laerm;17737;52.586;13.284;2023-04-06T04:27:41;53.38;51.72;58.44;;
61321;Laerm;17737;52.586;13.284;2023-04-06T04:30:10;54.16;51.68;60.63;;
61321;Laerm;17737;52.586;13.284;2023-04-06T04:32:38;54.47;51.57;67.53;;
61321;Laerm;17737;52.586;13.284;2023-04-06T04:35:09;54.55;51.85;59.43;;
61321;Laerm;17737;52.586;13.284;2023-04-06T04:37:38;55.45;51.64;62.41;;
61321;Laerm;17737;52.586;13.284;2023-04-06T04:40:07;54.51;51.71;60.79;;
61321;Laerm;17737;52.586;13.284;2023-04-06T04:42:36;55.03;51.83;60.60;;
61321;Laerm;17737;52.586;13.284;2023-04-06T04:45:05;54.23;51.75;62.84;;
61321;Laerm;17737;52.586;13.284;2023-04-06T04:47:33;54.80;51.85;68.59;;
61321;Laerm;17737;52.586;13.284;2023-04-06T04:50:01;54.75;51.86;62.84;;
61321;Laerm;17737;52.586;13.284;2023-04-06T04:52:30;53.85;51.78;58.18;;
61321;Laerm;17737;52.586;13.284;2023-04-06T04:54:58;54.47;51.71;68.71;;
61321;Laerm;17737;52.586;13.284;2023-04-06T04:57:26;54.77;51.80;60.99;;
61321;Laerm;17737;52.586;13.284;2023-04-06T04:59:54;53.66;51.61;57.65;;
61321;Laerm;17737;52.586;13.284;2023-04-06T05:02:23;53.83;51.67;68.32;;
61321;Laerm;17737;52.586;13.284;2023-04-06T05:04:52;54.05;51.79;59.22;;
61321;Laerm;17737;52.586;13.284;2023-04-06T05:07:20;55.02;51.61;63.14;;
61321;Laerm;17737;52.586;13.284;2023-04-06T05:09:50;54.38;51.81;61.88;;
61321;Laerm;17737;52.586;13.284;2023-04-06T05:12:19;54.59;51.71;60.93;;
61321;Laerm;17737;52.586;13.284;2023-04-06T05:14:47;53.63;51.70;67.37;;
61321;Laerm;17737;52.586;13.284;2023-04-06T05:17:16;55.40;51.79;61.36;;
61321;Laerm;17737;52.586;13.284;2023-04-06T05:19:44;54.39;51.72;61.65;;
61321;Laerm;17737;52.586;13.284;2023-04-06T05:22:12;54.59;51.59;59.71;;
61321;Laerm;17737;52.586;13.284;2023-04-06T05:24:42;54.95;51.62;60.80;;
61321;Laerm;17737;52.586;13.284;2023-04-06T05:27:12;54.44;51.69;59.45;;
61321;Laerm;17737;52.586;13.284;2023-04-06T05:29:40;54.37;51.69;59.99;;
61321;Laerm;17737;52.586;13.284;2023-04-06T05:32:08;54.76;51.95;59.52;;
61321;Laerm;17737;52.586;13.284;2023-04-06T05:34:37;54.24;51.86;60.68;;
61321;Laerm;17737;52.586;13.284;2023-04-06T05:37:05;54.38;51.43;67.16;;
61321;Laerm;17737;52.586;13.284;2023-04-06T05:39:33;55.15;51.24;65.07;;
61321;Laerm;17737;52.586;13.284;2023-04-06T05:42:04;54.15;51.70;59.05;;
61321;Laerm;17737;52.586;13.284;2023-04-06T05:44:36;54.73;51.74;60.47;;
61321;Laerm;17737;52.586;13.284;2023-04-06T05:47:05;54.73;51.65;59.67;;
61321;Laerm;17737;52.586;13.284;2023-04-06T05:49:33;54.83;51.63;62.46;;
61321;Laerm;17737;52.586;13.284;2023-04-06T05:52:01;54.38;51.61;60.37;;
61321;Laerm;17737;52.586;13.284;2023-04-06T05:54:30;54.43;51.60;68.28;;
61321;Laerm;17737;52.586;13.284;2023-04-06T05:57:02;54.98;51.67;61.67;;
61321;Laerm;17737;52.586;13.284;2023-04-06T05:59:34;54.36;51.55;59.32;;
61321;Laerm;17737;52.586;13.284;2023-04-06T06:02:04;53.90;51.62;58.95;;
61321;Laerm;17737;52.586;13.284;2023-04-06T06:04:32;53.61;51.53;60.52;;
61321;Laerm;17737;52.586;13.284;2023-04-06T06:07:00;54.03;51.42;60.00;;
61321;Laerm;17737;52.586;13.284;2023-04-06T06:09:28;54.05;51.69;58.81;;
61321;Laerm;17737;52.586;13.284;2023-04-06T06:11:57;56.00;52.31;63.60;;
61321;Laerm;17737;52.586;13.284;2023-04-06T06:14:25;57.41;52.53;73.22;;
61321;Laerm;17737;52.586;13.284;2023-04-06T06:16:56;53.86;51.41;60.01;;
61321;Laerm;17737;52.586;13.284;2023-04-06T06:19:24;54.93;51.59;62.41;;
61321;Laerm;17737;52.586;13.284;2023-04-06T06:21:52;54.80;51.22;60.70;;
61321;Laerm;17737;52.586;13.284;2023-04-06T06:24:20;54.38;51.56;60.10;;
61321;Laerm;17737;52.586;13.284;2023-04-06T06:26:49;54.72;51.44;61.33;;
61321;Laerm;17737;52.586;13.284;2023-04-06T06:29:17;54.43;51.59;60.39;;
61321;Laerm;17737;52.586;13.284;2023-04-06T06:31:47;54.16;51.24;60.13;;
61321;Laerm;17737;52.586;13.284;2023-04-06T06:34:17;54.64;51.65;59.38;;
61321;Laerm;17737;52.586;13.284;2023-04-06T06:36:46;53.64;51.06;61.17;;
61321;Laerm;17737;52.586;13.284;2023-04-06T06:39:16;55.01;51.32;69.96;;
61321;Laerm;17737;52.586;13.284;2023-04-06T06:41:47;54.30;51.42;61.29;;
61321;Laerm;17737;52.586;13.284;2023-04-06T06:44:15;54.11;51.31;59.51;;
61321;Laerm;17737;52.586;13.284;2023-04-06T06:46:44;55.69;51.32;68.06;;
61321;Laerm;17737;52.586;13.284;2023-04-06T06:49:12;53.91;51.35;58.83;;
61321;Laerm;17737;52.586;13.284;2023-04-06T06:51:46;54.41;51.43;65.83;;
61321;Laerm;17737;52.586;13.284;2023-04-06T06:54:14;53.87;51.10;59.56;;
61321;Laerm;17737;52.586;13.284;2023-04-06T06:56:45;53.73;51.10;61.22;;
61321;Laerm;17737;52.586;13.284;2023-04-06T06:59:13;55.62;51.59;61.60;;
61321;Laerm;17737;52.586;13.284;2023-04-06T07:01:42;54.69;51.25;63.31;;
61321;Laerm;17737;52.586;13.284;2023-04-06T07:04:10;54.16;51.35;59.58;;
61321;Laerm;17737;52.586;13.284;2023-04-06T07:06:39;54.48;51.29;61.68;;
61321;Laerm;17737;52.586;13.284;2023-04-06T07:09:08;54.18;50.59;71.95;;
61321;Laerm;17737;52.586;13.284;2023-04-06T07:11:36;54.98;51.36;64.97;;
61321;Laerm;17737;52.586;13.284;2023-04-06T07:14:09;52.77;50.93;56.62;;
61321;Laerm;17737;52.586;13.284;2023-04-06T07:16:40;53.71;51.21;59.49;;
61321;Laerm;17737;52.586;13.284;2023-04-06T07:19:12;54.48;51.47;62.48;;
61321;Laerm;17737;52.586;13.284;2023-04-06T07:21:43;55.01;51.16;62.32;;
61321;Laerm;17737;52.586;13.284;2023-04-06T07:24:13;54.64;51.07;62.35;;
61321;Laerm;17737;52.586;13.284;2023-04-06T07:26:41;55.58;51.17;66.15;;
61321;Laerm;17737;52.586;13.284;2023-04-06T07:29:10;54.52;51.31;66.77;;
61321;Laerm;17737;52.586;13.284;2023-04-06T07:31:39;54.24;50.94;65.81;;
61321;Laerm;17737;52.586;13.284;2023-04-06T07:34:07;53.91;51.11;62.16;;
61321;Laerm;17737;52.586;13.284;2023-04-06T07:36:36;54.27;51.00;58.87;;
61321;Laerm;17737;52.586;13.284;2023-04-06T07:39:04;55.35;50.75;64.32;;
61321;Laerm;17737;52.586;13.284;2023-04-06T07:41:33;54.29;50.99;63.02;;
61321;Laerm;17737;52.586;13.284;2023-04-06T07:44:02;53.20;51.01;58.10;;
61321;Laerm;17737;52.586;13.284;2023-04-06T07:46:31;53.37;51.06;65.28;;
61321;Laerm;17737;52.586;13.284;2023-04-06T07:49:00;53.90;51.17;64.64;;
61321;Laerm;17737;52.586;13.284;2023-04-06T07:51:28;53.31;50.86;65.42;;
61321;Laerm;17737;52.586;13.284;2023-04-06T07:53:57;54.68;51.20;67.40;;
61321;Laerm;17737;52.586;13.284;2023-04-06T07:56:25;54.14;51.12;62.82;;
61321;Laerm;17737;52.586;13.284;2023-04-06T07:58:55;53.12;50.96;59.71;;
61321;Laerm;17737;52.586;13.284;2023-04-06T08:01:27;53.38;50.77;58.99;;
61321;Laerm;17737;52.586;13.284;2023-04-06T08:03:56;53.94;50.88;59.12;;
61321;Laerm;17737;52.586;13.284;2023-04-06T08:06:24;54.34;51.01;66.02;;
61321;Laerm;17737;52.586;13.284;2023-04-06T08:08:53;53.44;50.98;58.61;;
61321;Laerm;17737;52.586;13.284;2023-04-06T08:11:21;53.74;51.04;59.15;;
61321;Laerm;17737;52.586;13.284;2023-04-06T08:13:49;53.36;51.03;58.10;;
61321;Laerm;17737;52.586;13.284;2023-04-06T08:16:19;53.23;50.80;58.41;;
61321;Laerm;17737;52.586;13.284;2023-04-06T08:18:47;53.53;50.93;59.52;;
61321;Laerm;17737;52.586;13.284;2023-04-06T08:21:15;54.32;51.18;60.52;;
61321;Laerm;17737;52.586;13.284;2023-04-06T08:23:43;53.55;51.04;58.00;;
61321;Laerm;17737;52.586;13.284;2023-04-06T08:26:12;52.91;51.01;67.20;;
61321;Laerm;17737;52.586;13.284;2023-04-06T08:28:41;53.60;50.77;58.64;;
61321;Laerm;17737;52.586;13.284;2023-04-06T08:31:12;53.42;50.96;58.85;;
61321;Laerm;17737;52.586;13.284;2023-04-06T08:33:43;53.84;51.01;64.94;;
61321;Laerm;17737;52.586;13.284;2023-04-06T08:36:14;54.27;51.18;64.31;;
61321;Laerm;17737;52.586;13.284;2023-04-06T08:38:43;53.92;50.84;59.37;;
61321;Laerm;17737;52.586;13.284;2023-04-06T08:41:13;55.43;51.23;65.04;;
61321;Laerm;17737;52.586;13.284;2023-04-06T08:43:47;54.43;51.00;60.72;;
61321;Laerm;17737;52.586;13.284;2023-04-06T08:46:21;54.27;51.16;59.73;;
61321;Laerm;17737;52.586;13.284;2023-04-06T08:49:00;53.68;50.74;59.78;;
61321;Laerm;17737;52.586;13.284;2023-04-06T08:51:37;53.80;50.91;63.73;;
61321;Laerm;17737;52.586;13.284;2023-04-06T08:54:08;54.22;50.78;65.62;;
61321;Laerm;17737;52.586;13.284;2023-04-06T08:56:39;53.64;51.05;59.83;;
61321;Laerm;17737;52.586;13.284;2023-04-06T08:59:09;53.38;50.92;60.75;;
61321;Laerm;17737;52.586;13.284;2023-04-06T09:01:40;54.02;51.18;58.29;;
61321;Laerm;17737;52.586;13.284;2023-04-06T09:04:11;54.06;50.84;61.50;;
61321;Laerm;17737;52.586;13.284;2023-04-06T09:06:40;53.16;50.97;58.45;;
61321;Laerm;17737;52.586;13.284;2023-04-06T09:09:08;53.82;51.25;57.94;;
61321;Laerm;17737;52.586;13.284;2023-04-06T09:11:45;55.26;51.53;61.61;;
61321;Laerm;17737;52.586;13.284;2023-04-06T09:14:14;54.11;50.97;62.87;;
61321;Laerm;17737;52.586;13.284;2023-04-06T09:16:45;54.70;50.85;60.29;;
61321;Laerm;17737;52.586;13.284;2023-04-06T09:19:15;55.71;51.28;69.92;;
61321;Laerm;17737;52.586;13.284;2023-04-06T09:21:43;53.79;51.00;63.02;;
61321;Laerm;17737;52.586;13.284;2023-04-06T09:24:11;53.72;50.94;59.33;;
61321;Laerm;17737;52.586;13.284;2023-04-06T09:26:46;54.06;51.04;62.24;;
61321;Laerm;17737;52.586;13.284;2023-04-06T09:29:26;53.51;50.91;60.59;;
61321;Laerm;17737;52.586;13.284;2023-04-06T09:32:03;53.86;50.80;65.95;;
61321;Laerm;17737;52.586;13.284;2023-04-06T09:34:33;53.62;51.03;58.70;;
61321;Laerm;17737;52.586;13.284;2023-04-06T09:37:12;53.79;51.07;58.19;;
61321;Laerm;17737;52.586;13.284;2023-04-06T09:39:41;52.95;50.86;64.11;;
61321;Laerm;17737;52.586;13.284;2023-04-06T09:42:09;54.18;50.84;59.78;;
61321;Laerm;17737;52.586;13.284;2023-04-06T09:44:38;53.95;50.87;57.64;;
61321;Laerm;17737;52.586;13.284;2023-04-06T09:47:06;54.25;51.06;59.55;;
61321;Laerm;17737;52.586;13.284;2023-04-06T09:49:38;54.69;51.24;61.87;;
61321;Laerm;17737;52.586;13.284;2023-04-06T09:52:09;53.08;50.88;60.53;;
61321;Laerm;17737;52.586;13.284;2023-04-06T09:54:41;52.97;50.97;56.67;;
61321;Laerm;17737;52.586;13.284;2023-04-06T09:57:19;54.40;51.03;59.97;;
61321;Laerm;17737;52.586;13.284;2023-04-06T10:00:03;53.30;50.95;58.17;;
61321;Laerm;17737;52.586;13.284;2023-04-06T10:02:50;53.95;51.02;61.80;;
61321;Laerm;17737;52.586;13.284;2023-04-06T10:05:31;53.51;51.09;59.67;;
61321;Laerm;17737;52.586;13.284;2023-04-06T10:08:06;53.83;50.99;58.63;;
61321;Laerm;17737;52.586;13.284;2023-04-06T10:10:37;53.65;51.06;66.25;;
61321;Laerm;17737;52.586;13.284;2023-04-06T10:13:09;53.66;50.98;65.87;;
61321;Laerm;17737;52.586;13.284;2023-04-06T10:15:38;54.53;51.28;63.18;;
61321;Laerm;17737;52.586;13.284;2023-04-06T10:18:08;53.85;51.04;63.30;;
61321;Laerm;17737;52.586;13.284;2023-04-06T10:20:43;53.26;51.08;66.03;;
61321;Laerm;17737;52.586;13.284;2023-04-06T10:23:23;53.57;51.15;59.51;;
61321;Laerm;17737;52.586;13.284;2023-04-06T10:25:56;53.61;51.15;63.45;;
61321;Laerm;17737;52.586;13.284;2023-04-06T10:28:30;53.76;50.95;58.30;;
61321;Laerm;17737;52.586;13.284;2023-04-06T10:31:01;53.76;50.70;57.83;;
61321;Laerm;17737;52.586;13.284;2023-04-06T10:33:29;53.90;50.97;60.93;;
61321;Laerm;17737;52.586;13.284;2023-04-06T10:36:10;54.01;51.21;59.24;;
61321;Laerm;17737;52.586;13.284;2023-04-06T10:38:40;54.60;50.84;65.87;;
61321;Laerm;17737;52.586;13.284;2023-04-06T10:41:10;54.15;51.20;61.03;;
61321;Laerm;17737;52.586;13.284;2023-04-06T10:43:41;54.76;50.90;73.39;;
61321;Laerm;17737;52.586;13.284;2023-04-06T10:46:10;54.05;51.22;58.68;;
61321;Laerm;17737;52.586;13.284;2023-04-06T10:48:40;53.50;50.95;63.80;;
61321;Laerm;17737;52.586;13.284;2023-04-06T10:51:12;53.79;50.96;60.36;;
61321;Laerm;17737;52.586;13.284;2023-04-06T10:53:42;53.45;51.06;62.60;;
61321;Laerm;17737;52.586;13.284;2023-04-06T10:56:12;53.76;51.02;58.02;;
61321;Laerm;17737;52.586;13.284;2023-04-06T10:58:44;54.05;50.93;62.55;;
61321;Laerm;17737;52.586;13.284;2023-04-06T11:01:15;53.66;50.85;68.24;;
61321;Laerm;17737;52.586;13.284;2023-04-06T11:03:44;53.66;51.08;68.92;;
61321;Laerm;17737;52.586;13.284;2023-04-06T11:06:20;57.89;50.78;78.47;;
61321;Laerm;17737;52.586;13.284;2023-04-06T11:08:48;53.98;51.26;60.63;;
61321;Laerm;17737;52.586;13.284;2023-04-06T11:11:20;53.92;51.39;60.55;;
61321;Laerm;17737;52.586;13.284;2023-04-06T11:13:50;53.93;50.95;59.96;;
61321;Laerm;17737;52.586;13.284;2023-04-06T11:16:21;53.93;50.73;61.59;;
61321;Laerm;17737;52.586;13.284;2023-04-06T11:18:52;53.76;51.21;58.46;;
61321;Laerm;17737;52.586;13.284;2023-04-06T11:21:35;54.12;51.08;59.21;;
61321;Laerm;17737;52.586;13.284;2023-04-06T11:24:06;53.59;51.04;65.44;;
61321;Laerm;17737;52.586;13.284;2023-04-06T11:26:40;53.48;50.88;62.22;;
61321;Laerm;17737;52.586;13.284;2023-04-06T11:29:08;53.69;50.87;60.74;;
61321;Laerm;17737;52.586;13.284;2023-04-06T11:31:41;54.15;51.16;67.05;;
61321;Laerm;17737;52.586;13.284;2023-04-06T11:34:16;54.43;50.94;66.37;;
61321;Laerm;17737;52.586;13.284;2023-04-06T11:36:48;53.92;51.11;58.70;;
61321;Laerm;17737;52.586;13.284;2023-04-06T11:39:20;53.71;51.16;57.41;;
61321;Laerm;17737;52.586;13.284;2023-04-06T11:41:50;53.33;50.95;61.45;;
61321;Laerm;17737;52.586;13.284;2023-04-06T11:44:32;54.61;51.08;63.38;;
61321;Laerm;17737;52.586;13.284;2023-04-06T11:47:00;53.79;51.27;58.15;;
61321;Laerm;17737;52.586;13.284;2023-04-06T11:49:30;53.92;51.12;59.16;;
61321;Laerm;17737;52.586;13.284;2023-04-06T11:52:00;54.01;50.89;66.49;;
61321;Laerm;17737;52.586;13.284;2023-04-06T11:54:33;55.57;51.16;63.27;;
61321;Laerm;17737;52.586;13.284;2023-04-06T11:57:03;53.89;50.86;59.40;;
61321;Laerm;17737;52.586;13.284;2023-04-06T11:59:31;54.82;51.35;64.19;;
61321;Laerm;17737;52.586;13.284;2023-04-06T12:02:01;53.66;50.99;65.65;;
61321;Laerm;17737;52.586;13.284;2023-04-06T12:04:30;53.92;51.01;58.92;;
61321;Laerm;17737;52.586;13.284;2023-04-06T12:07:00;53.72;51.08;64.07;;
61321;Laerm;17737;52.586;13.284;2023-04-06T12:09:28;53.93;50.72;59.00;;
61321;Laerm;17737;52.586;13.284;2023-04-06T12:11:57;53.86;50.87;59.29;;
61321;Laerm;17737;52.586;13.284;2023-04-06T12:14:25;54.66;50.96;67.45;;
61321;Laerm;17737;52.586;13.284;2023-04-06T12:16:54;53.52;51.15;59.36;;
61321;Laerm;17737;52.586;13.284;2023-04-06T12:19:22;56.98;51.56;73.68;;
61321;Laerm;17737;52.586;13.284;2023-04-06T12:21:52;53.99;51.08;59.22;;
61321;Laerm;17737;52.586;13.284;2023-04-06T12:24:23;53.84;50.95;64.31;;
61321;Laerm;17737;52.586;13.284;2023-04-06T12:26:51;54.46;51.01;75.72;;
61321;Laerm;17737;52.586;13.284;2023-04-06T12:29:36;53.78;51.02;61.17;;
61321;Laerm;17737;52.586;13.284;2023-04-06T12:32:04;54.77;51.11;62.00;;
61321;Laerm;17737;52.586;13.284;2023-04-06T12:34:32;54.29;51.09;62.62;;
61321;Laerm;17737;52.586;13.284;2023-04-06T12:37:01;53.83;50.77;62.55;;
61321;Laerm;17737;52.586;13.284;2023-04-06T12:39:31;54.18;51.10;58.52;;
61321;Laerm;17737;52.586;13.284;2023-04-06T12:41:59;54.62;51.06;65.08;;
61321;Laerm;17737;52.586;13.284;2023-04-06T12:44:28;54.02;50.89;65.55;;
61321;Laerm;17737;52.586;13.284;2023-04-06T12:46:56;53.74;51.07;60.72;;
61321;Laerm;17737;52.586;13.284;2023-04-06T12:49:25;53.64;50.93;59.21;;
61321;Laerm;17737;52.586;13.284;2023-04-06T12:51:55;53.75;51.18;62.15;;
61321;Laerm;17737;52.586;13.284;2023-04-06T12:54:23;53.64;50.87;58.83;;
61321;Laerm;17737;52.586;13.284;2023-04-06T12:56:54;54.23;51.31;58.15;;
61321;Laerm;17737;52.586;13.284;2023-04-06T12:59:22;54.44;51.12;61.43;;
61321;Laerm;17737;52.586;13.284;2023-04-06T13:01:52;53.60;50.79;62.65;;
61321;Laerm;17737;52.586;13.284;2023-04-06T13:04:20;54.20;50.97;64.47;;
61321;Laerm;17737;52.586;13.284;2023-04-06T13:06:48;55.15;50.93;61.17;;
61321;Laerm;17737;52.586;13.284;2023-04-06T13:09:16;55.89;50.79;76.11;;
61321;Laerm;17737;52.586;13.284;2023-04-06T13:11:44;54.08;50.90;60.22;;
61321;Laerm;17737;52.586;13.284;2023-04-06T13:14:14;54.52;50.95;66.60;;
61321;Laerm;17737;52.586;13.284;2023-04-06T13:16:42;53.85;50.79;62.95;;
61321;Laerm;17737;52.586;13.284;2023-04-06T13:19:10;54.34;50.95;60.57;;
61321;Laerm;17737;52.586;13.284;2023-04-06T13:21:39;53.89;50.93;60.30;;
61321;Laerm;17737;52.586;13.284;2023-04-06T13:24:07;54.57;51.01;60.56;;
61321;Laerm;17737;52.586;13.284;2023-04-06T13:26:35;54.06;50.65;60.01;;
61321;Laerm;17737;52.586;13.284;2023-04-06T13:29:04;54.09;50.86;64.16;;
61321;Laerm;17737;52.586;13.284;2023-04-06T13:31:33;53.44;50.82;58.91;;
61321;Laerm;17737;52.586;13.284;2023-04-06T13:34:01;54.78;51.20;62.92;;
61321;Laerm;17737;52.586;13.284;2023-04-06T13:36:30;54.10;51.29;59.72;;
61321;Laerm;17737;52.586;13.284;2023-04-06T13:38:58;53.94;51.02;58.71;;
61321;Laerm;17737;52.586;13.284;2023-04-06T13:41:26;53.76;50.92;58.18;;
61321;Laerm;17737;52.586;13.284;2023-04-06T13:43:55;53.73;50.94;59.44;;